sensor_id;sensor_type;location;lat;lon;timestamp;temperature;humidity
28530;DHT22;15737;49.760;6.632;2022-12-29T00:01:29;9.60;99.90
28530;DHT22;15737;49.760;6.632;2022-12-29T00:03:54;9.60;99.90
28530;DHT22;15737;49.760;6.632;2022-12-29T00:06:20;9.70;99.90
28530;DHT22;15737;49.760;6.632;2022-12-29T00:08:45;9.70;99.90
28530;DHT22;15737;49.760;6.632;2022-12-29T00:11:21;9.80;99.90
28530;DHT22;15737;49.760;6.632;2022-12-29T00:13:47;9.80;99.90
28530;DHT22;15737;49.760;6.632;2022-12-29T00:16:32;9.80;99.90
28530;DHT22;15737;49.760;6.632;2022-12-29T00:18:58;9.90;99.90
28530;DHT22;15737;49.760;6.632;2022-12-29T00:21:24;9.90;99.90
28530;DHT22;15737;49.760;6.632;2022-12-29T00:24:17;9.80;99.90
28530;DHT22;15737;49.760;6.632;2022-12-29T00:26:58;9.80;99.90
28530;DHT22;15737;49.760;6.632;2022-12-29T00:29:51;9.70;99.90
28530;DHT22;15737;49.760;6.632;2022-12-29T00:32:36;9.70;99.90
28530;DHT22;15737;49.760;6.632;2022-12-29T00:35:25;9.70;99.90
28530;DHT22;15737;49.760;6.632;2022-12-29T00:37:52;9.70;99.90
28530;DHT22;15737;49.760;6.632;2022-12-29T00:40:37;9.70;99.90
28530;DHT22;15737;49.760;6.632;2022-12-29T00:43:21;9.60;99.90
28530;DHT22;15737;49.760;6.632;2022-12-29T00:46:05;9.60;99.90
28530;DHT22;15737;49.760;6.632;2022-12-29T00:48:31;9.60;99.90
28530;DHT22;15737;49.760;6.632;2022-12-29T00:51:15;9.60;99.90
28530;DHT22;15737;49.760;6.632;2022-12-29T00:53:40;9.60;99.90
28530;DHT22;15737;49.760;6.632;2022-12-29T00:56:06;9.60;99.90
28530;DHT22;15737;49.760;6.632;2022-12-29T00:58:31;9.70;99.90
28530;DHT22;15737;49.760;6.632;2022-12-29T01:01:06;9.70;99.90
28530;DHT22;15737;49.760;6.632;2022-12-29T01:03:33;9.60;99.90
28530;DHT22;15737;49.760;6.632;2022-12-29T01:06:07;9.60;99.90
28530;DHT22;15737;49.760;6.632;2022-12-29T01:08:33;9.60;99.90
28530;DHT22;15737;49.760;6.632;2022-12-29T01:11:17;9.70;99.90
28530;DHT22;15737;49.760;6.632;2022-12-29T01:13:42;9.70;99.90
28530;DHT22;15737;49.760;6.632;2022-12-29T01:16:09;9.60;99.90
28530;DHT22;15737;49.760;6.632;2022-12-29T01:18:34;9.60;99.90
28530;DHT22;15737;49.760;6.632;2022-12-29T01:21:05;9.60;99.90
28530;DHT22;15737;49.760;6.632;2022-12-29T01:23:32;9.50;99.90
28530;DHT22;15737;49.760;6.632;2022-12-29T01:26:07;9.50;99.90
28530;DHT22;15737;49.760;6.632;2022-12-29T01:28:33;9.60;99.90
28530;DHT22;15737;49.760;6.632;2022-12-29T01:31:00;9.50;99.90
28530;DHT22;15737;49.760;6.632;2022-12-29T01:33:26;9.50;99.90
28530;DHT22;15737;49.760;6.632;2022-12-29T01:35:52;9.50;99.90
28530;DHT22;15737;49.760;6.632;2022-12-29T01:38:17;9.50;99.90
28530;DHT22;15737;49.760;6.632;2022-12-29T01:40:44;9.50;99.90
28530;DHT22;15737;49.760;6.632;2022-12-29T01:43:12;9.50;99.90
28530;DHT22;15737;49.760;6.632;2022-12-29T01:45:48;9.50;99.90
28530;DHT22;15737;49.760;6.632;2022-12-29T01:48:18;9.50;99.90
28530;DHT22;15737;49.760;6.632;2022-12-29T01:50:50;9.50;99.90
28530;DHT22;15737;49.760;6.632;2022-12-29T01:53:20;9.40;99.90
28530;DHT22;15737;49.760;6.632;2022-12-29T01:55:54;9.40;99.90
28530;DHT22;15737;49.760;6.632;2022-12-29T01:58:23;9.40;99.90
28530;DHT22;15737;49.760;6.632;2022-12-29T02:00:50;9.40;99.90
28530;DHT22;15737;49.760;6.632;2022-12-29T02:03:16;9.40;99.90
28530;DHT22;15737;49.760;6.632;2022-12-29T02:08:20;9.40;99.90
28530;DHT22;15737;49.760;6.632;2022-12-29T02:10:47;9.40;99.90
28530;DHT22;15737;49.760;6.632;2022-12-29T02:13:16;9.40;99.90
28530;DHT22;15737;49.760;6.632;2022-12-29T02:24:11;9.30;99.90
28530;DHT22;15737;49.760;6.632;2022-12-29T02:30:04;9.30;99.90
28530;DHT22;15737;49.760;6.632;2022-12-29T02:32:52;9.40;99.90
28530;DHT22;15737;49.760;6.632;2022-12-29T02:35:51;9.40;99.90
28530;DHT22;15737;49.760;6.632;2022-12-29T02:41:20;9.40;99.90
28530;DHT22;15737;49.760;6.632;2022-12-29T02:44:12;9.40;99.90
28530;DHT22;15737;49.760;6.632;2022-12-29T02:46:54;9.40;99.90
28530;DHT22;15737;49.760;6.632;2022-12-29T02:49:42;9.50;99.90
28530;DHT22;15737;49.760;6.632;2022-12-29T02:52:16;9.50;99.90
28530;DHT22;15737;49.760;6.632;2022-12-29T02:54:42;9.50;99.90
28530;DHT22;15737;49.760;6.632;2022-12-29T02:59:45;9.50;99.90
28530;DHT22;15737;49.760;6.632;2022-12-29T03:05:22;9.60;99.90
28530;DHT22;15737;49.760;6.632;2022-12-29T03:13:49;9.60;99.90
28530;DHT22;15737;49.760;6.632;2022-12-29T03:16:47;9.70;99.90
28530;DHT22;15737;49.760;6.632;2022-12-29T03:19:31;9.80;99.90
28530;DHT22;15737;49.760;6.632;2022-12-29T03:22:02;9.90;99.90
28530;DHT22;15737;49.760;6.632;2022-12-29T03:24:50;9.90;99.90
28530;DHT22;15737;49.760;6.632;2022-12-29T03:27:21;9.80;99.90
28530;DHT22;15737;49.760;6.632;2022-12-29T03:29:51;9.90;99.90
28530;DHT22;15737;49.760;6.632;2022-12-29T03:32:27;9.90;99.90
28530;DHT22;15737;49.760;6.632;2022-12-29T03:34:54;10.00;99.90
28530;DHT22;15737;49.760;6.632;2022-12-29T03:37:25;10.00;99.90
28530;DHT22;15737;49.760;6.632;2022-12-29T03:39:51;10.10;99.90
28530;DHT22;15737;49.760;6.632;2022-12-29T03:42:20;10.10;99.90
28530;DHT22;15737;49.760;6.632;2022-12-29T03:44:47;10.20;99.90
28530;DHT22;15737;49.760;6.632;2022-12-29T03:47:14;10.20;99.90
28530;DHT22;15737;49.760;6.632;2022-12-29T03:49:41;10.20;99.90
28530;DHT22;15737;49.760;6.632;2022-12-29T03:52:06;10.20;99.90
28530;DHT22;15737;49.760;6.632;2022-12-29T03:54:32;10.20;99.90
28530;DHT22;15737;49.760;6.632;2022-12-29T03:56:58;10.30;99.90
28530;DHT22;15737;49.760;6.632;2022-12-29T04:01:52;10.40;99.90
28530;DHT22;15737;49.760;6.632;2022-12-29T04:04:18;10.40;99.90
28530;DHT22;15737;49.760;6.632;2022-12-29T04:06:43;10.40;99.90
28530;DHT22;15737;49.760;6.632;2022-12-29T04:09:09;10.40;99.90
28530;DHT22;15737;49.760;6.632;2022-12-29T04:11:35;10.40;99.90
28530;DHT22;15737;49.760;6.632;2022-12-29T04:14:01;10.40;99.90
28530;DHT22;15737;49.760;6.632;2022-12-29T04:16:26;10.40;99.90
28530;DHT22;15737;49.760;6.632;2022-12-29T04:18:52;10.20;99.90
28530;DHT22;15737;49.760;6.632;2022-12-29T04:21:17;10.10;99.90
28530;DHT22;15737;49.760;6.632;2022-12-29T04:23:43;10.10;99.90
28530;DHT22;15737;49.760;6.632;2022-12-29T04:26:09;10.00;99.90
28530;DHT22;15737;49.760;6.632;2022-12-29T04:28:35;10.00;99.90
28530;DHT22;15737;49.760;6.632;2022-12-29T04:31:02;10.00;99.90
28530;DHT22;15737;49.760;6.632;2022-12-29T04:33:27;10.00;99.90
28530;DHT22;15737;49.760;6.632;2022-12-29T04:35:53;10.10;99.90
28530;DHT22;15737;49.760;6.632;2022-12-29T04:38:20;10.10;99.90
28530;DHT22;15737;49.760;6.632;2022-12-29T04:40:46;10.20;99.90
28530;DHT22;15737;49.760;6.632;2022-12-29T04:43:12;10.30;99.90
28530;DHT22;15737;49.760;6.632;2022-12-29T04:45:45;10.30;99.90
28530;DHT22;15737;49.760;6.632;2022-12-29T04:48:11;10.40;99.90
28530;DHT22;15737;49.760;6.632;2022-12-29T04:50:37;10.50;99.90
28530;DHT22;15737;49.760;6.632;2022-12-29T04:53:02;10.60;99.90
28530;DHT22;15737;49.760;6.632;2022-12-29T04:55:28;10.70;99.90
28530;DHT22;15737;49.760;6.632;2022-12-29T04:57:53;10.70;99.90
28530;DHT22;15737;49.760;6.632;2022-12-29T05:00:19;10.80;99.90
28530;DHT22;15737;49.760;6.632;2022-12-29T05:02:45;10.80;99.90
28530;DHT22;15737;49.760;6.632;2022-12-29T05:05:10;10.80;99.90
28530;DHT22;15737;49.760;6.632;2022-12-29T05:07:36;10.90;99.90
28530;DHT22;15737;49.760;6.632;2022-12-29T05:10:02;10.90;99.90
28530;DHT22;15737;49.760;6.632;2022-12-29T05:12:32;10.90;99.90
28530;DHT22;15737;49.760;6.632;2022-12-29T05:14:57;11.00;99.90
28530;DHT22;15737;49.760;6.632;2022-12-29T05:17:23;10.90;99.90
28530;DHT22;15737;49.760;6.632;2022-12-29T05:19:48;11.00;99.90
28530;DHT22;15737;49.760;6.632;2022-12-29T05:22:14;11.10;99.90
28530;DHT22;15737;49.760;6.632;2022-12-29T05:24:40;11.10;99.90
28530;DHT22;15737;49.760;6.632;2022-12-29T05:27:05;11.00;99.90
28530;DHT22;15737;49.760;6.632;2022-12-29T05:29:31;10.80;99.90
28530;DHT22;15737;49.760;6.632;2022-12-29T05:31:56;10.60;99.90
28530;DHT22;15737;49.760;6.632;2022-12-29T05:34:22;10.30;99.90
28530;DHT22;15737;49.760;6.632;2022-12-29T05:36:47;10.20;99.90
28530;DHT22;15737;49.760;6.632;2022-12-29T05:39:13;10.00;99.90
28530;DHT22;15737;49.760;6.632;2022-12-29T05:41:38;9.90;99.90
28530;DHT22;15737;49.760;6.632;2022-12-29T05:44:04;9.90;99.90
28530;DHT22;15737;49.760;6.632;2022-12-29T05:46:30;9.80;99.90
28530;DHT22;15737;49.760;6.632;2022-12-29T05:48:55;9.70;99.90
28530;DHT22;15737;49.760;6.632;2022-12-29T05:51:21;9.70;99.90
28530;DHT22;15737;49.760;6.632;2022-12-29T05:53:46;9.60;99.90
28530;DHT22;15737;49.760;6.632;2022-12-29T05:56:12;9.60;99.90
28530;DHT22;15737;49.760;6.632;2022-12-29T05:58:37;9.60;99.90
28530;DHT22;15737;49.760;6.632;2022-12-29T06:01:03;9.60;99.90
28530;DHT22;15737;49.760;6.632;2022-12-29T06:03:28;9.60;99.90
28530;DHT22;15737;49.760;6.632;2022-12-29T06:05:54;9.60;99.90
28530;DHT22;15737;49.760;6.632;2022-12-29T06:08:19;9.60;99.90
28530;DHT22;15737;49.760;6.632;2022-12-29T06:10:45;9.60;99.90
28530;DHT22;15737;49.760;6.632;2022-12-29T06:13:10;9.70;99.90
28530;DHT22;15737;49.760;6.632;2022-12-29T06:15:36;9.70;99.90
28530;DHT22;15737;49.760;6.632;2022-12-29T06:18:01;9.80;99.90
28530;DHT22;15737;49.760;6.632;2022-12-29T06:20:27;9.80;99.90
28530;DHT22;15737;49.760;6.632;2022-12-29T06:22:53;9.80;99.90
28530;DHT22;15737;49.760;6.632;2022-12-29T06:25:18;9.90;99.90
28530;DHT22;15737;49.760;6.632;2022-12-29T06:27:44;9.90;99.90
28530;DHT22;15737;49.760;6.632;2022-12-29T06:30:10;9.90;99.90
28530;DHT22;15737;49.760;6.632;2022-12-29T06:32:36;10.00;99.90
28530;DHT22;15737;49.760;6.632;2022-12-29T06:35:02;10.10;99.90
28530;DHT22;15737;49.760;6.632;2022-12-29T06:37:28;10.10;99.90
28530;DHT22;15737;49.760;6.632;2022-12-29T06:39:54;10.20;99.90
28530;DHT22;15737;49.760;6.632;2022-12-29T06:42:19;10.30;99.90
28530;DHT22;15737;49.760;6.632;2022-12-29T06:44:45;10.30;99.90
28530;DHT22;15737;49.760;6.632;2022-12-29T06:47:11;10.40;99.90
28530;DHT22;15737;49.760;6.632;2022-12-29T06:49:36;10.40;99.90
28530;DHT22;15737;49.760;6.632;2022-12-29T06:52:03;10.40;99.90
28530;DHT22;15737;49.760;6.632;2022-12-29T06:54:30;10.40;99.90
28530;DHT22;15737;49.760;6.632;2022-12-29T06:56:56;10.40;99.90
28530;DHT22;15737;49.760;6.632;2022-12-29T06:59:22;10.40;99.90
28530;DHT22;15737;49.760;6.632;2022-12-29T07:01:47;10.50;99.90
28530;DHT22;15737;49.760;6.632;2022-12-29T07:04:13;10.50;99.90
28530;DHT22;15737;49.760;6.632;2022-12-29T07:06:38;10.50;99.90
28530;DHT22;15737;49.760;6.632;2022-12-29T07:09:06;10.50;99.90
28530;DHT22;15737;49.760;6.632;2022-12-29T07:11:32;10.50;99.90
28530;DHT22;15737;49.760;6.632;2022-12-29T07:13:57;10.50;99.90
28530;DHT22;15737;49.760;6.632;2022-12-29T07:16:23;10.50;99.90
28530;DHT22;15737;49.760;6.632;2022-12-29T07:18:48;10.60;99.90
28530;DHT22;15737;49.760;6.632;2022-12-29T07:21:14;10.60;99.90
28530;DHT22;15737;49.760;6.632;2022-12-29T07:23:40;10.50;99.90
28530;DHT22;15737;49.760;6.632;2022-12-29T07:26:08;10.50;99.90
28530;DHT22;15737;49.760;6.632;2022-12-29T07:28:35;10.40;99.90
28530;DHT22;15737;49.760;6.632;2022-12-29T07:31:01;10.30;99.90
28530;DHT22;15737;49.760;6.632;2022-12-29T07:33:30;10.30;99.90
28530;DHT22;15737;49.760;6.632;2022-12-29T07:35:56;10.20;99.90
28530;DHT22;15737;49.760;6.632;2022-12-29T07:38:22;10.10;99.90
28530;DHT22;15737;49.760;6.632;2022-12-29T07:40:47;10.10;99.90
28530;DHT22;15737;49.760;6.632;2022-12-29T07:43:13;10.10;99.90
28530;DHT22;15737;49.760;6.632;2022-12-29T07:45:38;10.00;99.90
28530;DHT22;15737;49.760;6.632;2022-12-29T07:48:04;9.90;99.90
28530;DHT22;15737;49.760;6.632;2022-12-29T07:50:33;9.90;99.90
28530;DHT22;15737;49.760;6.632;2022-12-29T07:52:58;9.80;99.90
28530;DHT22;15737;49.760;6.632;2022-12-29T07:55:24;9.70;99.90
28530;DHT22;15737;49.760;6.632;2022-12-29T07:57:52;9.70;99.90
28530;DHT22;15737;49.760;6.632;2022-12-29T08:00:19;9.70;99.90
28530;DHT22;15737;49.760;6.632;2022-12-29T08:02:45;9.60;99.90
28530;DHT22;15737;49.760;6.632;2022-12-29T08:05:10;9.60;99.90
28530;DHT22;15737;49.760;6.632;2022-12-29T08:07:36;9.60;99.90
28530;DHT22;15737;49.760;6.632;2022-12-29T08:10:03;9.60;99.90
28530;DHT22;15737;49.760;6.632;2022-12-29T08:12:28;9.70;99.90
28530;DHT22;15737;49.760;6.632;2022-12-29T08:14:54;9.70;99.90
28530;DHT22;15737;49.760;6.632;2022-12-29T08:17:20;9.70;99.90
28530;DHT22;15737;49.760;6.632;2022-12-29T08:19:45;9.70;99.90
28530;DHT22;15737;49.760;6.632;2022-12-29T08:22:11;9.60;99.90
28530;DHT22;15737;49.760;6.632;2022-12-29T08:24:38;9.60;99.90
28530;DHT22;15737;49.760;6.632;2022-12-29T08:27:03;9.60;99.90
28530;DHT22;15737;49.760;6.632;2022-12-29T08:29:29;9.70;99.90
28530;DHT22;15737;49.760;6.632;2022-12-29T08:31:54;9.70;99.90
28530;DHT22;15737;49.760;6.632;2022-12-29T08:34:19;9.70;99.90
28530;DHT22;15737;49.760;6.632;2022-12-29T08:36:45;9.80;99.90
28530;DHT22;15737;49.760;6.632;2022-12-29T08:39:10;9.80;99.90
28530;DHT22;15737;49.760;6.632;2022-12-29T08:41:36;9.80;99.90
28530;DHT22;15737;49.760;6.632;2022-12-29T08:44:01;9.70;99.90
28530;DHT22;15737;49.760;6.632;2022-12-29T08:46:27;9.80;99.90
28530;DHT22;15737;49.760;6.632;2022-12-29T08:48:53;9.70;99.90
28530;DHT22;15737;49.760;6.632;2022-12-29T08:51:19;9.80;99.90
28530;DHT22;15737;49.760;6.632;2022-12-29T08:53:45;9.80;99.90
28530;DHT22;15737;49.760;6.632;2022-12-29T08:56:11;9.90;99.90
28530;DHT22;15737;49.760;6.632;2022-12-29T08:58:37;9.90;99.90
28530;DHT22;15737;49.760;6.632;2022-12-29T09:01:03;9.90;99.90
28530;DHT22;15737;49.760;6.632;2022-12-29T09:03:28;9.90;99.90
28530;DHT22;15737;49.760;6.632;2022-12-29T09:05:55;10.00;99.90
28530;DHT22;15737;49.760;6.632;2022-12-29T09:08:21;10.10;99.90
28530;DHT22;15737;49.760;6.632;2022-12-29T09:10:47;10.20;99.90
28530;DHT22;15737;49.760;6.632;2022-12-29T09:13:14;10.30;99.90
28530;DHT22;15737;49.760;6.632;2022-12-29T09:15:40;10.30;99.90
28530;DHT22;15737;49.760;6.632;2022-12-29T09:18:06;10.40;99.90
28530;DHT22;15737;49.760;6.632;2022-12-29T09:20:32;10.40;99.90
28530;DHT22;15737;49.760;6.632;2022-12-29T09:22:57;10.50;99.90
28530;DHT22;15737;49.760;6.632;2022-12-29T09:25:24;10.60;99.90
28530;DHT22;15737;49.760;6.632;2022-12-29T09:27:50;10.60;99.90
28530;DHT22;15737;49.760;6.632;2022-12-29T09:30:18;10.70;99.90
28530;DHT22;15737;49.760;6.632;2022-12-29T09:32:44;10.70;99.90
28530;DHT22;15737;49.760;6.632;2022-12-29T09:35:10;10.80;99.90
28530;DHT22;15737;49.760;6.632;2022-12-29T09:37:35;10.80;99.90
28530;DHT22;15737;49.760;6.632;2022-12-29T09:40:01;10.80;99.90
28530;DHT22;15737;49.760;6.632;2022-12-29T09:42:55;10.80;99.90
28530;DHT22;15737;49.760;6.632;2022-12-29T09:45:46;10.80;99.90
28530;DHT22;15737;49.760;6.632;2022-12-29T09:48:21;10.80;99.90
28530;DHT22;15737;49.760;6.632;2022-12-29T09:50:52;10.90;99.90
28530;DHT22;15737;49.760;6.632;2022-12-29T09:53:44;10.90;99.90
28530;DHT22;15737;49.760;6.632;2022-12-29T09:56:22;10.90;99.90
28530;DHT22;15737;49.760;6.632;2022-12-29T09:59:02;10.90;99.90
28530;DHT22;15737;49.760;6.632;2022-12-29T10:01:49;10.90;99.90
28530;DHT22;15737;49.760;6.632;2022-12-29T10:04:16;10.80;99.90
28530;DHT22;15737;49.760;6.632;2022-12-29T10:06:47;10.80;99.90
28530;DHT22;15737;49.760;6.632;2022-12-29T10:09:19;10.90;99.90
28530;DHT22;15737;49.760;6.632;2022-12-29T10:17:52;11.10;99.90
28530;DHT22;15737;49.760;6.632;2022-12-29T10:20:31;11.20;99.90
28530;DHT22;15737;49.760;6.632;2022-12-29T10:23:04;11.10;99.90
28530;DHT22;15737;49.760;6.632;2022-12-29T10:25:42;11.10;99.90
28530;DHT22;15737;49.760;6.632;2022-12-29T10:28:19;11.10;99.90
28530;DHT22;15737;49.760;6.632;2022-12-29T10:30:48;11.10;99.90
28530;DHT22;15737;49.760;6.632;2022-12-29T10:33:19;11.10;99.90
28530;DHT22;15737;49.760;6.632;2022-12-29T10:35:45;11.10;99.90
28530;DHT22;15737;49.760;6.632;2022-12-29T10:41:13;11.10;99.90
28530;DHT22;15737;49.760;6.632;2022-12-29T10:43:48;11.10;99.90
28530;DHT22;15737;49.760;6.632;2022-12-29T10:46:19;11.10;99.90
28530;DHT22;15737;49.760;6.632;2022-12-29T10:48:45;11.10;99.90
28530;DHT22;15737;49.760;6.632;2022-12-29T10:51:33;11.10;99.90
28530;DHT22;15737;49.760;6.632;2022-12-29T10:58:59;11.20;99.90
28530;DHT22;15737;49.760;6.632;2022-12-29T11:01:36;11.20;99.90
28530;DHT22;15737;49.760;6.632;2022-12-29T11:04:07;11.20;99.90
28530;DHT22;15737;49.760;6.632;2022-12-29T11:06:36;11.20;99.90
28530;DHT22;15737;49.760;6.632;2022-12-29T11:09:15;11.20;99.90
28530;DHT22;15737;49.760;6.632;2022-12-29T11:11:41;11.30;99.90
28530;DHT22;15737;49.760;6.632;2022-12-29T11:14:18;11.30;99.90
28530;DHT22;15737;49.760;6.632;2022-12-29T11:16:44;11.30;99.90
28530;DHT22;15737;49.760;6.632;2022-12-29T11:19:24;11.30;99.90
28530;DHT22;15737;49.760;6.632;2022-12-29T11:21:51;11.30;99.90
28530;DHT22;15737;49.760;6.632;2022-12-29T11:24:28;11.30;99.90
28530;DHT22;15737;49.760;6.632;2022-12-29T11:26:56;11.30;99.90
28530;DHT22;15737;49.760;6.632;2022-12-29T11:29:39;11.30;99.90
28530;DHT22;15737;49.760;6.632;2022-12-29T11:32:20;11.40;99.90
28530;DHT22;15737;49.760;6.632;2022-12-29T11:34:46;11.40;99.90
28530;DHT22;15737;49.760;6.632;2022-12-29T11:37:26;11.50;99.90
28530;DHT22;15737;49.760;6.632;2022-12-29T11:42:39;11.40;99.90
28530;DHT22;15737;49.760;6.632;2022-12-29T11:45:15;11.40;99.90
28530;DHT22;15737;49.760;6.632;2022-12-29T11:47:44;11.40;99.90
28530;DHT22;15737;49.760;6.632;2022-12-29T11:50:35;11.50;99.90
28530;DHT22;15737;49.760;6.632;2022-12-29T11:53:03;11.50;99.90
28530;DHT22;15737;49.760;6.632;2022-12-29T11:55:31;11.50;99.90
28530;DHT22;15737;49.760;6.632;2022-12-29T11:57:59;11.60;99.90
28530;DHT22;15737;49.760;6.632;2022-12-29T12:00:28;11.60;99.90
28530;DHT22;15737;49.760;6.632;2022-12-29T12:03:03;11.50;99.90
28530;DHT22;15737;49.760;6.632;2022-12-29T12:05:41;11.40;99.90
28530;DHT22;15737;49.760;6.632;2022-12-29T12:08:17;11.40;99.90
28530;DHT22;15737;49.760;6.632;2022-12-29T12:10:52;11.50;99.90
28530;DHT22;15737;49.760;6.632;2022-12-29T12:13:29;11.50;99.90
28530;DHT22;15737;49.760;6.632;2022-12-29T12:16:21;11.60;99.90
28530;DHT22;15737;49.760;6.632;2022-12-29T12:18:57;11.70;99.90
28530;DHT22;15737;49.760;6.632;2022-12-29T12:21:39;12.00;99.90
28530;DHT22;15737;49.760;6.632;2022-12-29T12:27:23;13.50;99.90
28530;DHT22;15737;49.760;6.632;2022-12-29T12:29:59;13.70;99.90
28530;DHT22;15737;49.760;6.632;2022-12-29T12:35:12;12.80;99.90
28530;DHT22;15737;49.760;6.632;2022-12-29T12:43:03;12.30;99.90
28530;DHT22;15737;49.760;6.632;2022-12-29T12:45:42;12.30;99.90
28530;DHT22;15737;49.760;6.632;2022-12-29T12:48:44;12.30;99.90
28530;DHT22;15737;49.760;6.632;2022-12-29T12:54:28;12.10;99.90
28530;DHT22;15737;49.760;6.632;2022-12-29T12:57:05;11.90;99.90
28530;DHT22;15737;49.760;6.632;2022-12-29T13:05:16;12.00;99.90
28530;DHT22;15737;49.760;6.632;2022-12-29T13:07:59;11.90;99.90
28530;DHT22;15737;49.760;6.632;2022-12-29T13:10:38;12.00;99.90
28530;DHT22;15737;49.760;6.632;2022-12-29T13:16:11;12.20;99.90
28530;DHT22;15737;49.760;6.632;2022-12-29T13:19:06;12.30;99.90
28530;DHT22;15737;49.760;6.632;2022-12-29T13:21:56;12.10;99.90
28530;DHT22;15737;49.760;6.632;2022-12-29T13:30:08;11.90;99.90
28530;DHT22;15737;49.760;6.632;2022-12-29T13:38:09;11.80;99.90
28530;DHT22;15737;49.760;6.632;2022-12-29T13:40:40;11.90;99.90
28530;DHT22;15737;49.760;6.632;2022-12-29T13:43:07;12.00;99.90
28530;DHT22;15737;49.760;6.632;2022-12-29T13:45:34;12.40;99.90
28530;DHT22;15737;49.760;6.632;2022-12-29T13:48:17;13.10;99.90
28530;DHT22;15737;49.760;6.632;2022-12-29T13:50:48;13.20;99.90
28530;DHT22;15737;49.760;6.632;2022-12-29T13:56:19;12.80;99.90
28530;DHT22;15737;49.760;6.632;2022-12-29T13:58:58;12.60;99.90
28530;DHT22;15737;49.760;6.632;2022-12-29T14:01:34;12.30;99.90
28530;DHT22;15737;49.760;6.632;2022-12-29T14:04:08;12.20;99.90
28530;DHT22;15737;49.760;6.632;2022-12-29T14:06:35;12.00;99.90
28530;DHT22;15737;49.760;6.632;2022-12-29T14:09:25;12.00;99.90
28530;DHT22;15737;49.760;6.632;2022-12-29T14:11:52;12.30;99.90
28530;DHT22;15737;49.760;6.632;2022-12-29T14:14:30;12.90;99.90
28530;DHT22;15737;49.760;6.632;2022-12-29T14:17:10;13.00;99.90
28530;DHT22;15737;49.760;6.632;2022-12-29T14:19:40;12.50;99.90
28530;DHT22;15737;49.760;6.632;2022-12-29T14:22:08;12.20;99.90
28530;DHT22;15737;49.760;6.632;2022-12-29T14:34:47;12.30;99.90
28530;DHT22;15737;49.760;6.632;2022-12-29T14:40:16;12.20;99.90
28530;DHT22;15737;49.760;6.632;2022-12-29T14:42:46;12.10;99.90
28530;DHT22;15737;49.760;6.632;2022-12-29T14:47:49;11.90;99.90
28530;DHT22;15737;49.760;6.632;2022-12-29T14:50:23;11.60;99.90
28530;DHT22;15737;49.760;6.632;2022-12-29T14:55:44;11.10;99.90
28530;DHT22;15737;49.760;6.632;2022-12-29T14:58:32;10.90;99.90
28530;DHT22;15737;49.760;6.632;2022-12-29T15:01:01;10.80;99.90
28530;DHT22;15737;49.760;6.632;2022-12-29T15:06:08;10.70;99.90
28530;DHT22;15737;49.760;6.632;2022-12-29T15:08:54;10.60;99.90
28530;DHT22;15737;49.760;6.632;2022-12-29T15:11:44;10.60;99.90
28530;DHT22;15737;49.760;6.632;2022-12-29T15:14:32;10.50;99.90
28530;DHT22;15737;49.760;6.632;2022-12-29T15:16:58;10.40;99.90
28530;DHT22;15737;49.760;6.632;2022-12-29T15:19:25;10.40;99.90
28530;DHT22;15737;49.760;6.632;2022-12-29T15:21:52;10.30;99.90
28530;DHT22;15737;49.760;6.632;2022-12-29T15:24:19;10.10;99.90
28530;DHT22;15737;49.760;6.632;2022-12-29T15:26:46;10.10;99.90
28530;DHT22;15737;49.760;6.632;2022-12-29T15:29:38;10.00;99.90
28530;DHT22;15737;49.760;6.632;2022-12-29T15:32:20;9.90;99.90
28530;DHT22;15737;49.760;6.632;2022-12-29T15:34:49;9.80;99.90
28530;DHT22;15737;49.760;6.632;2022-12-29T15:37:18;9.70;99.90
28530;DHT22;15737;49.760;6.632;2022-12-29T15:39:44;9.70;99.90
28530;DHT22;15737;49.760;6.632;2022-12-29T15:44:54;9.50;99.90
28530;DHT22;15737;49.760;6.632;2022-12-29T15:47:23;9.50;99.90
28530;DHT22;15737;49.760;6.632;2022-12-29T15:49:52;9.50;99.90
28530;DHT22;15737;49.760;6.632;2022-12-29T15:52:22;9.40;99.90
28530;DHT22;15737;49.760;6.632;2022-12-29T15:54:51;9.30;99.90
28530;DHT22;15737;49.760;6.632;2022-12-29T15:57:26;9.20;99.90
28530;DHT22;15737;49.760;6.632;2022-12-29T15:59:53;9.20;99.90
28530;DHT22;15737;49.760;6.632;2022-12-29T16:02:21;9.20;99.90
28530;DHT22;15737;49.760;6.632;2022-12-29T16:04:48;9.30;99.90
28530;DHT22;15737;49.760;6.632;2022-12-29T16:07:30;9.40;99.90
28530;DHT22;15737;49.760;6.632;2022-12-29T16:10:00;9.40;99.90
28530;DHT22;15737;49.760;6.632;2022-12-29T16:12:35;9.40;99.90
28530;DHT22;15737;49.760;6.632;2022-12-29T16:15:06;9.30;99.90
28530;DHT22;15737;49.760;6.632;2022-12-29T16:17:33;9.10;99.90
28530;DHT22;15737;49.760;6.632;2022-12-29T16:20:04;9.00;99.90
28530;DHT22;15737;49.760;6.632;2022-12-29T16:22:41;8.90;99.90
28530;DHT22;15737;49.760;6.632;2022-12-29T16:25:16;8.80;99.90
28530;DHT22;15737;49.760;6.632;2022-12-29T16:27:44;8.80;99.90
28530;DHT22;15737;49.760;6.632;2022-12-29T16:30:24;8.60;99.90
28530;DHT22;15737;49.760;6.632;2022-12-29T16:32:53;8.60;99.90
28530;DHT22;15737;49.760;6.632;2022-12-29T16:35:24;8.50;99.90
28530;DHT22;15737;49.760;6.632;2022-12-29T16:38:19;8.50;99.90
28530;DHT22;15737;49.760;6.632;2022-12-29T16:40:59;8.60;99.90
28530;DHT22;15737;49.760;6.632;2022-12-29T16:43:34;8.50;99.90
28530;DHT22;15737;49.760;6.632;2022-12-29T16:48:28;8.40;99.90
28530;DHT22;15737;49.760;6.632;2022-12-29T16:51:16;8.40;99.90
28530;DHT22;15737;49.760;6.632;2022-12-29T16:53:51;8.30;99.90
28530;DHT22;15737;49.760;6.632;2022-12-29T16:56:20;8.40;99.90
28530;DHT22;15737;49.760;6.632;2022-12-29T16:58:48;8.30;99.90
28530;DHT22;15737;49.760;6.632;2022-12-29T17:01:14;8.20;99.90
28530;DHT22;15737;49.760;6.632;2022-12-29T17:03:47;8.30;99.90
28530;DHT22;15737;49.760;6.632;2022-12-29T17:06:15;8.30;99.90
28530;DHT22;15737;49.760;6.632;2022-12-29T17:08:43;8.20;99.90
28530;DHT22;15737;49.760;6.632;2022-12-29T17:11:26;8.10;99.90
28530;DHT22;15737;49.760;6.632;2022-12-29T17:16:47;8.10;99.90
28530;DHT22;15737;49.760;6.632;2022-12-29T17:19:17;8.10;99.90
28530;DHT22;15737;49.760;6.632;2022-12-29T17:21:44;8.10;99.90
28530;DHT22;15737;49.760;6.632;2022-12-29T17:24:19;8.00;99.90
28530;DHT22;15737;49.760;6.632;2022-12-29T17:26:48;7.90;99.90
28530;DHT22;15737;49.760;6.632;2022-12-29T17:29:36;8.00;99.90
28530;DHT22;15737;49.760;6.632;2022-12-29T17:32:04;8.00;99.90
28530;DHT22;15737;49.760;6.632;2022-12-29T17:34:31;8.00;99.90
28530;DHT22;15737;49.760;6.632;2022-12-29T17:36:57;7.90;99.90
28530;DHT22;15737;49.760;6.632;2022-12-29T17:41:55;8.10;99.90
28530;DHT22;15737;49.760;6.632;2022-12-29T17:44:22;8.20;99.90
28530;DHT22;15737;49.760;6.632;2022-12-29T17:46:48;8.20;99.90
28530;DHT22;15737;49.760;6.632;2022-12-29T17:49:16;8.20;99.90
28530;DHT22;15737;49.760;6.632;2022-12-29T17:51:43;8.10;99.90
28530;DHT22;15737;49.760;6.632;2022-12-29T17:54:24;8.10;99.90
28530;DHT22;15737;49.760;6.632;2022-12-29T17:56:50;8.00;99.90